sensor_id;sensor_type;location;lat;lon;timestamp;temperature;humidity
64209;DHT22;50527;52.414;13.226;2023-07-20T00:02:20;17.10;99.90
64209;DHT22;50527;52.414;13.226;2023-07-20T00:04:45;17.00;99.90
64209;DHT22;50527;52.414;13.226;2023-07-20T00:07:11;17.00;99.90
64209;DHT22;50527;52.414;13.226;2023-07-20T00:09:36;17.00;99.90
64209;DHT22;50527;52.414;13.226;2023-07-20T00:12:02;16.90;99.90
64209;DHT22;50527;52.414;13.226;2023-07-20T00:14:27;16.90;99.90
64209;DHT22;50527;52.414;13.226;2023-07-20T00:16:55;17.00;99.90
64209;DHT22;50527;52.414;13.226;2023-07-20T00:19:25;16.90;99.90
64209;DHT22;50527;52.414;13.226;2023-07-20T00:21:51;16.90;99.90
64209;DHT22;50527;52.414;13.226;2023-07-20T00:24:17;16.90;99.90
64209;DHT22;50527;52.414;13.226;2023-07-20T00:26:42;16.90;99.90
64209;DHT22;50527;52.414;13.226;2023-07-20T00:29:08;16.80;99.90
64209;DHT22;50527;52.414;13.226;2023-07-20T00:31:34;16.80;99.90
64209;DHT22;50527;52.414;13.226;2023-07-20T00:34:05;16.80;99.90
64209;DHT22;50527;52.414;13.226;2023-07-20T00:36:31;16.80;99.90
64209;DHT22;50527;52.414;13.226;2023-07-20T00:38:56;16.80;99.90
64209;DHT22;50527;52.414;13.226;2023-07-20T00:41:22;16.80;99.90
64209;DHT22;50527;52.414;13.226;2023-07-20T00:43:47;16.80;99.90
64209;DHT22;50527;52.414;13.226;2023-07-20T00:46:13;16.80;99.90
64209;DHT22;50527;52.414;13.226;2023-07-20T00:48:40;16.70;99.90
64209;DHT22;50527;52.414;13.226;2023-07-20T00:51:06;16.70;99.90
64209;DHT22;50527;52.414;13.226;2023-07-20T00:53:31;16.70;99.90
64209;DHT22;50527;52.414;13.226;2023-07-20T00:55:57;16.70;99.90
64209;DHT22;50527;52.414;13.226;2023-07-20T00:58:23;16.70;99.90
64209;DHT22;50527;52.414;13.226;2023-07-20T01:00:49;16.70;99.90
64209;DHT22;50527;52.414;13.226;2023-07-20T01:03:14;16.70;99.90
64209;DHT22;50527;52.414;13.226;2023-07-20T01:08:49;16.70;99.90
64209;DHT22;50527;52.414;13.226;2023-07-20T01:13:46;16.70;99.90
64209;DHT22;50527;52.414;13.226;2023-07-20T01:16:12;16.60;99.90
64209;DHT22;50527;52.414;13.226;2023-07-20T01:18:37;16.60;99.90
64209;DHT22;50527;52.414;13.226;2023-07-20T01:21:08;16.60;99.90
64209;DHT22;50527;52.414;13.226;2023-07-20T01:26:38;16.50;99.90
64209;DHT22;50527;52.414;13.226;2023-07-20T01:29:25;16.50;99.90
64209;DHT22;50527;52.414;13.226;2023-07-20T01:31:54;16.50;99.90
64209;DHT22;50527;52.414;13.226;2023-07-20T01:34:22;16.50;99.90
64209;DHT22;50527;52.414;13.226;2023-07-20T01:36:50;16.50;99.90
64209;DHT22;50527;52.414;13.226;2023-07-20T01:39:18;16.50;99.90
64209;DHT22;50527;52.414;13.226;2023-07-20T01:41:45;16.50;99.90
64209;DHT22;50527;52.414;13.226;2023-07-20T01:44:11;16.50;99.90
64209;DHT22;50527;52.414;13.226;2023-07-20T01:46:37;16.50;99.90
64209;DHT22;50527;52.414;13.226;2023-07-20T01:49:03;16.50;99.90
64209;DHT22;50527;52.414;13.226;2023-07-20T01:51:28;16.50;99.90
64209;DHT22;50527;52.414;13.226;2023-07-20T01:53:53;16.50;99.90
64209;DHT22;50527;52.414;13.226;2023-07-20T01:56:20;16.40;99.90
64209;DHT22;50527;52.414;13.226;2023-07-20T01:58:45;16.40;99.90
64209;DHT22;50527;52.414;13.226;2023-07-20T02:01:11;16.40;99.90
64209;DHT22;50527;52.414;13.226;2023-07-20T02:03:36;16.40;99.90
64209;DHT22;50527;52.414;13.226;2023-07-20T02:06:02;16.30;99.90
64209;DHT22;50527;52.414;13.226;2023-07-20T02:08:27;16.40;99.90
64209;DHT22;50527;52.414;13.226;2023-07-20T02:10:53;16.30;99.90
64209;DHT22;50527;52.414;13.226;2023-07-20T02:13:18;16.30;99.90
64209;DHT22;50527;52.414;13.226;2023-07-20T02:15:44;16.20;99.90
64209;DHT22;50527;52.414;13.226;2023-07-20T02:18:10;16.20;99.90
64209;DHT22;50527;52.414;13.226;2023-07-20T02:20:36;16.20;99.90
64209;DHT22;50527;52.414;13.226;2023-07-20T02:23:01;16.20;99.90
64209;DHT22;50527;52.414;13.226;2023-07-20T02:25:27;16.20;99.90
64209;DHT22;50527;52.414;13.226;2023-07-20T02:27:52;16.20;99.90
64209;DHT22;50527;52.414;13.226;2023-07-20T02:30:18;16.10;99.90
64209;DHT22;50527;52.414;13.226;2023-07-20T02:32:43;16.10;99.90
64209;DHT22;50527;52.414;13.226;2023-07-20T02:35:14;16.10;99.90
64209;DHT22;50527;52.414;13.226;2023-07-20T02:37:40;16.10;99.90
64209;DHT22;50527;52.414;13.226;2023-07-20T02:40:06;16.10;99.90
64209;DHT22;50527;52.414;13.226;2023-07-20T02:42:32;16.10;99.90
64209;DHT22;50527;52.414;13.226;2023-07-20T02:44:58;16.10;99.90
64209;DHT22;50527;52.414;13.226;2023-07-20T02:47:23;16.10;99.90
64209;DHT22;50527;52.414;13.226;2023-07-20T02:49:49;16.10;99.90
64209;DHT22;50527;52.414;13.226;2023-07-20T02:52:14;16.10;99.90
64209;DHT22;50527;52.414;13.226;2023-07-20T02:54:40;16.10;99.90
64209;DHT22;50527;52.414;13.226;2023-07-20T02:57:05;16.10;99.90
64209;DHT22;50527;52.414;13.226;2023-07-20T02:59:31;16.10;99.90
64209;DHT22;50527;52.414;13.226;2023-07-20T03:01:56;16.10;99.90
64209;DHT22;50527;52.414;13.226;2023-07-20T03:04:23;16.10;99.90
64209;DHT22;50527;52.414;13.226;2023-07-20T03:06:49;16.10;99.90
64209;DHT22;50527;52.414;13.226;2023-07-20T03:09:14;16.10;99.90
64209;DHT22;50527;52.414;13.226;2023-07-20T03:11:41;16.20;99.90
64209;DHT22;50527;52.414;13.226;2023-07-20T03:14:06;16.30;99.90
64209;DHT22;50527;52.414;13.226;2023-07-20T03:16:32;16.30;99.90
64209;DHT22;50527;52.414;13.226;2023-07-20T03:18:59;16.30;99.90
64209;DHT22;50527;52.414;13.226;2023-07-20T03:21:25;16.30;99.90
64209;DHT22;50527;52.414;13.226;2023-07-20T03:23:51;16.40;99.90
64209;DHT22;50527;52.414;13.226;2023-07-20T03:26:16;16.40;99.90
64209;DHT22;50527;52.414;13.226;2023-07-20T03:28:42;16.30;99.90
64209;DHT22;50527;52.414;13.226;2023-07-20T03:31:07;16.30;99.90
64209;DHT22;50527;52.414;13.226;2023-07-20T03:33:34;16.30;99.90
64209;DHT22;50527;52.414;13.226;2023-07-20T03:36:00;16.40;99.90
64209;DHT22;50527;52.414;13.226;2023-07-20T03:38:26;16.30;99.90
64209;DHT22;50527;52.414;13.226;2023-07-20T03:40:53;16.30;99.90
64209;DHT22;50527;52.414;13.226;2023-07-20T03:43:19;16.30;99.90
64209;DHT22;50527;52.414;13.226;2023-07-20T03:45:45;16.30;99.90
64209;DHT22;50527;52.414;13.226;2023-07-20T03:48:17;16.30;99.90
64209;DHT22;50527;52.414;13.226;2023-07-20T03:50:47;16.30;99.90
64209;DHT22;50527;52.414;13.226;2023-07-20T03:53:13;16.30;99.90
64209;DHT22;50527;52.414;13.226;2023-07-20T03:55:38;16.30;99.90
64209;DHT22;50527;52.414;13.226;2023-07-20T03:58:06;16.30;99.90
64209;DHT22;50527;52.414;13.226;2023-07-20T04:00:31;16.30;99.90
64209;DHT22;50527;52.414;13.226;2023-07-20T04:02:57;16.40;99.90
64209;DHT22;50527;52.414;13.226;2023-07-20T04:05:22;16.40;99.90
64209;DHT22;50527;52.414;13.226;2023-07-20T04:07:48;16.40;99.90
64209;DHT22;50527;52.414;13.226;2023-07-20T04:10:13;16.40;99.90
64209;DHT22;50527;52.414;13.226;2023-07-20T04:12:39;16.50;99.90
64209;DHT22;50527;52.414;13.226;2023-07-20T04:15:05;16.50;99.90
64209;DHT22;50527;52.414;13.226;2023-07-20T04:17:31;16.50;99.90
64209;DHT22;50527;52.414;13.226;2023-07-20T04:19:57;16.50;99.90
64209;DHT22;50527;52.414;13.226;2023-07-20T04:22:22;16.40;99.90
64209;DHT22;50527;52.414;13.226;2023-07-20T04:24:48;16.40;99.90
64209;DHT22;50527;52.414;13.226;2023-07-20T04:27:13;16.40;99.90
64209;DHT22;50527;52.414;13.226;2023-07-20T04:29:38;16.50;99.90
64209;DHT22;50527;52.414;13.226;2023-07-20T04:32:04;16.50;99.90
64209;DHT22;50527;52.414;13.226;2023-07-20T04:34:30;16.60;99.90
64209;DHT22;50527;52.414;13.226;2023-07-20T04:36:55;16.60;99.90
64209;DHT22;50527;52.414;13.226;2023-07-20T04:39:21;16.50;99.90
64209;DHT22;50527;52.414;13.226;2023-07-20T04:41:46;16.60;99.90
64209;DHT22;50527;52.414;13.226;2023-07-20T04:44:13;16.50;99.90
64209;DHT22;50527;52.414;13.226;2023-07-20T04:46:39;16.50;99.90
64209;DHT22;50527;52.414;13.226;2023-07-20T04:49:05;16.50;99.90
64209;DHT22;50527;52.414;13.226;2023-07-20T04:51:31;16.50;99.90
64209;DHT22;50527;52.414;13.226;2023-07-20T04:53:57;16.50;99.90
64209;DHT22;50527;52.414;13.226;2023-07-20T04:56:22;16.50;99.90
64209;DHT22;50527;52.414;13.226;2023-07-20T04:58:48;16.50;99.90
64209;DHT22;50527;52.414;13.226;2023-07-20T05:01:14;16.50;99.90
64209;DHT22;50527;52.414;13.226;2023-07-20T05:03:39;16.60;99.90
64209;DHT22;50527;52.414;13.226;2023-07-20T05:06:05;16.60;99.90
64209;DHT22;50527;52.414;13.226;2023-07-20T05:08:30;16.70;99.90
64209;DHT22;50527;52.414;13.226;2023-07-20T05:10:56;16.70;99.90
64209;DHT22;50527;52.414;13.226;2023-07-20T05:13:21;16.70;99.90
64209;DHT22;50527;52.414;13.226;2023-07-20T05:15:47;16.70;99.90
64209;DHT22;50527;52.414;13.226;2023-07-20T05:18:16;16.80;99.90
64209;DHT22;50527;52.414;13.226;2023-07-20T05:20:48;16.90;99.90
64209;DHT22;50527;52.414;13.226;2023-07-20T05:23:14;16.90;99.90
64209;DHT22;50527;52.414;13.226;2023-07-20T05:25:40;16.80;99.90
64209;DHT22;50527;52.414;13.226;2023-07-20T05:28:05;16.90;99.90
64209;DHT22;50527;52.414;13.226;2023-07-20T05:30:31;16.90;99.90
64209;DHT22;50527;52.414;13.226;2023-07-20T05:32:57;17.00;99.90
64209;DHT22;50527;52.414;13.226;2023-07-20T05:35:22;17.00;99.90
64209;DHT22;50527;52.414;13.226;2023-07-20T05:37:48;17.00;99.90
64209;DHT22;50527;52.414;13.226;2023-07-20T05:40:14;17.10;99.90
64209;DHT22;50527;52.414;13.226;2023-07-20T05:42:44;17.00;99.90
64209;DHT22;50527;52.414;13.226;2023-07-20T05:45:10;17.00;99.90
64209;DHT22;50527;52.414;13.226;2023-07-20T05:47:35;16.90;99.90
64209;DHT22;50527;52.414;13.226;2023-07-20T05:50:01;16.90;99.90
64209;DHT22;50527;52.414;13.226;2023-07-20T05:52:27;16.90;99.90
64209;DHT22;50527;52.414;13.226;2023-07-20T05:54:52;16.90;99.90
64209;DHT22;50527;52.414;13.226;2023-07-20T05:57:18;17.00;99.90
64209;DHT22;50527;52.414;13.226;2023-07-20T05:59:43;17.10;99.90
64209;DHT22;50527;52.414;13.226;2023-07-20T06:02:10;17.20;99.60
64209;DHT22;50527;52.414;13.226;2023-07-20T06:04:35;17.30;98.50
64209;DHT22;50527;52.414;13.226;2023-07-20T06:07:01;17.30;97.80
64209;DHT22;50527;52.414;13.226;2023-07-20T06:09:27;17.30;97.60
64209;DHT22;50527;52.414;13.226;2023-07-20T06:11:52;17.30;98.30
64209;DHT22;50527;52.414;13.226;2023-07-20T06:14:18;17.30;99.20
64209;DHT22;50527;52.414;13.226;2023-07-20T06:16:44;17.40;98.60
64209;DHT22;50527;52.414;13.226;2023-07-20T06:19:09;17.40;98.30
64209;DHT22;50527;52.414;13.226;2023-07-20T06:21:37;17.50;97.60
64209;DHT22;50527;52.414;13.226;2023-07-20T06:24:03;17.50;97.50
64209;DHT22;50527;52.414;13.226;2023-07-20T06:26:28;17.50;96.50
64209;DHT22;50527;52.414;13.226;2023-07-20T06:28:55;17.40;96.20
64209;DHT22;50527;52.414;13.226;2023-07-20T06:31:21;17.40;95.50
64209;DHT22;50527;52.414;13.226;2023-07-20T06:33:46;17.40;95.80
64209;DHT22;50527;52.414;13.226;2023-07-20T06:36:12;17.30;96.00
64209;DHT22;50527;52.414;13.226;2023-07-20T06:38:37;17.30;96.50
64209;DHT22;50527;52.414;13.226;2023-07-20T06:41:03;17.70;96.30
64209;DHT22;50527;52.414;13.226;2023-07-20T06:43:28;17.80;96.30
64209;DHT22;50527;52.414;13.226;2023-07-20T06:45:54;17.90;96.20
64209;DHT22;50527;52.414;13.226;2023-07-20T06:48:21;18.20;95.90
64209;DHT22;50527;52.414;13.226;2023-07-20T06:50:46;18.30;93.70
64209;DHT22;50527;52.414;13.226;2023-07-20T06:53:12;18.30;93.00
64209;DHT22;50527;52.414;13.226;2023-07-20T06:55:38;18.40;93.10
64209;DHT22;50527;52.414;13.226;2023-07-20T06:58:03;18.40;92.60
64209;DHT22;50527;52.414;13.226;2023-07-20T07:00:29;18.40;92.20
64209;DHT22;50527;52.414;13.226;2023-07-20T07:02:57;18.40;91.10
64209;DHT22;50527;52.414;13.226;2023-07-20T07:05:35;19.00;89.90
64209;DHT22;50527;52.414;13.226;2023-07-20T07:08:02;21.70;76.60
64209;DHT22;50527;52.414;13.226;2023-07-20T07:10:28;25.60;60.40
64209;DHT22;50527;52.414;13.226;2023-07-20T07:12:53;26.50;54.00
64209;DHT22;50527;52.414;13.226;2023-07-20T07:15:19;26.80;53.00
64209;DHT22;50527;52.414;13.226;2023-07-20T07:17:44;25.70;53.90
64209;DHT22;50527;52.414;13.226;2023-07-20T07:20:10;24.00;56.50
64209;DHT22;50527;52.414;13.226;2023-07-20T07:22:35;22.60;62.10
64209;DHT22;50527;52.414;13.226;2023-07-20T07:25:01;21.70;64.30
64209;DHT22;50527;52.414;13.226;2023-07-20T07:27:28;21.20;67.80
64209;DHT22;50527;52.414;13.226;2023-07-20T07:29:53;20.70;71.30
64209;DHT22;50527;52.414;13.226;2023-07-20T07:32:20;20.20;74.40
64209;DHT22;50527;52.414;13.226;2023-07-20T07:34:46;19.90;78.60
64209;DHT22;50527;52.414;13.226;2023-07-20T07:37:13;19.70;77.80
64209;DHT22;50527;52.414;13.226;2023-07-20T07:39:39;19.50;78.80
64209;DHT22;50527;52.414;13.226;2023-07-20T07:42:05;19.50;77.90
64209;DHT22;50527;52.414;13.226;2023-07-20T07:44:30;19.50;76.20
64209;DHT22;50527;52.414;13.226;2023-07-20T07:47:21;19.60;75.90
64209;DHT22;50527;52.414;13.226;2023-07-20T07:49:46;19.70;74.50
64209;DHT22;50527;52.414;13.226;2023-07-20T07:52:12;19.70;75.20
64209;DHT22;50527;52.414;13.226;2023-07-20T07:54:38;19.80;74.80
64209;DHT22;50527;52.414;13.226;2023-07-20T07:57:03;20.20;73.40
64209;DHT22;50527;52.414;13.226;2023-07-20T07:59:29;20.30;71.00
64209;DHT22;50527;52.414;13.226;2023-07-20T08:01:56;20.00;71.90
64209;DHT22;50527;52.414;13.226;2023-07-20T08:07:46;19.70;74.60
64209;DHT22;50527;52.414;13.226;2023-07-20T08:10:11;19.60;74.30
64209;DHT22;50527;52.414;13.226;2023-07-20T08:12:37;19.60;73.40
64209;DHT22;50527;52.414;13.226;2023-07-20T08:15:03;19.40;75.40
64209;DHT22;50527;52.414;13.226;2023-07-20T08:20:45;19.30;74.30
64209;DHT22;50527;52.414;13.226;2023-07-20T08:23:32;20.20;71.30
64209;DHT22;50527;52.414;13.226;2023-07-20T08:25:58;20.90;67.30
64209;DHT22;50527;52.414;13.226;2023-07-20T08:28:24;22.30;62.00
64209;DHT22;50527;52.414;13.226;2023-07-20T08:30:49;23.00;58.80
64209;DHT22;50527;52.414;13.226;2023-07-20T08:33:17;22.80;56.10
64209;DHT22;50527;52.414;13.226;2023-07-20T08:35:46;22.30;58.30
64209;DHT22;50527;52.414;13.226;2023-07-20T08:38:12;22.00;61.50
64209;DHT22;50527;52.414;13.226;2023-07-20T08:40:42;21.90;59.70
64209;DHT22;50527;52.414;13.226;2023-07-20T08:43:10;21.50;62.70
64209;DHT22;50527;52.414;13.226;2023-07-20T08:52:20;20.90;67.60
64209;DHT22;50527;52.414;13.226;2023-07-20T08:54:45;20.80;68.00
64209;DHT22;50527;52.414;13.226;2023-07-20T08:57:13;21.00;69.40
64209;DHT22;50527;52.414;13.226;2023-07-20T08:59:40;21.30;66.70
64209;DHT22;50527;52.414;13.226;2023-07-20T09:02:06;21.40;62.80
64209;DHT22;50527;52.414;13.226;2023-07-20T09:04:34;21.20;61.50
64209;DHT22;50527;52.414;13.226;2023-07-20T09:06:59;20.90;62.50
64209;DHT22;50527;52.414;13.226;2023-07-20T09:09:25;20.90;62.10
64209;DHT22;50527;52.414;13.226;2023-07-20T09:11:50;21.00;62.50
64209;DHT22;50527;52.414;13.226;2023-07-20T09:14:16;21.10;61.60
64209;DHT22;50527;52.414;13.226;2023-07-20T09:16:49;21.10;63.60
64209;DHT22;50527;52.414;13.226;2023-07-20T09:19:18;21.20;62.40
64209;DHT22;50527;52.414;13.226;2023-07-20T09:21:46;21.20;64.50
64209;DHT22;50527;52.414;13.226;2023-07-20T09:24:12;21.70;62.10
64209;DHT22;50527;52.414;13.226;2023-07-20T09:26:42;22.00;59.10
64209;DHT22;50527;52.414;13.226;2023-07-20T09:29:08;21.90;60.30
64209;DHT22;50527;52.414;13.226;2023-07-20T09:31:37;22.10;56.70
64209;DHT22;50527;52.414;13.226;2023-07-20T09:34:04;22.00;57.20
64209;DHT22;50527;52.414;13.226;2023-07-20T09:36:33;21.80;59.10
64209;DHT22;50527;52.414;13.226;2023-07-20T09:38:59;21.50;60.40
64209;DHT22;50527;52.414;13.226;2023-07-20T09:41:25;21.50;58.80
64209;DHT22;50527;52.414;13.226;2023-07-20T09:43:52;21.50;59.40
64209;DHT22;50527;52.414;13.226;2023-07-20T09:46:18;21.60;60.40
64209;DHT22;50527;52.414;13.226;2023-07-20T09:48:54;21.80;59.00
64209;DHT22;50527;52.414;13.226;2023-07-20T09:51:23;22.00;57.60
64209;DHT22;50527;52.414;13.226;2023-07-20T09:53:52;22.20;56.70
64209;DHT22;50527;52.414;13.226;2023-07-20T09:56:21;21.90;57.20
64209;DHT22;50527;52.414;13.226;2023-07-20T09:58:47;21.60;57.80
64209;DHT22;50527;52.414;13.226;2023-07-20T10:01:13;21.30;59.50
64209;DHT22;50527;52.414;13.226;2023-07-20T10:03:43;21.30;60.50
64209;DHT22;50527;52.414;13.226;2023-07-20T10:09:32;21.00;61.80
64209;DHT22;50527;52.414;13.226;2023-07-20T10:11:59;20.90;60.30
64209;DHT22;50527;52.414;13.226;2023-07-20T10:14:27;20.70;62.70
64209;DHT22;50527;52.414;13.226;2023-07-20T10:16:58;20.80;61.90
64209;DHT22;50527;52.414;13.226;2023-07-20T10:19:49;21.80;59.90
64209;DHT22;50527;52.414;13.226;2023-07-20T10:22:19;22.50;57.30
64209;DHT22;50527;52.414;13.226;2023-07-20T10:24:46;23.10;55.10
64209;DHT22;50527;52.414;13.226;2023-07-20T10:30:35;22.90;54.30
64209;DHT22;50527;52.414;13.226;2023-07-20T10:33:04;22.60;54.20
64209;DHT22;50527;52.414;13.226;2023-07-20T10:35:30;22.30;55.00
64209;DHT22;50527;52.414;13.226;2023-07-20T10:38:03;21.90;55.50
64209;DHT22;50527;52.414;13.226;2023-07-20T10:53:48;20.60;60.90
64209;DHT22;50527;52.414;13.226;2023-07-20T10:56:20;20.40;63.40
64209;DHT22;50527;52.414;13.226;2023-07-20T10:58:46;20.30;64.70
64209;DHT22;50527;52.414;13.226;2023-07-20T11:01:16;20.10;64.40
64209;DHT22;50527;52.414;13.226;2023-07-20T11:03:43;20.20;62.10
64209;DHT22;50527;52.414;13.226;2023-07-20T11:08:54;20.00;64.30
64209;DHT22;50527;52.414;13.226;2023-07-20T11:11:28;20.00;65.60
64209;DHT22;50527;52.414;13.226;2023-07-20T11:14:01;19.90;67.20
64209;DHT22;50527;52.414;13.226;2023-07-20T11:19:06;19.70;69.40
64209;DHT22;50527;52.414;13.226;2023-07-20T11:21:38;19.70;70.30
64209;DHT22;50527;52.414;13.226;2023-07-20T11:24:06;19.50;71.30
64209;DHT22;50527;52.414;13.226;2023-07-20T11:26:52;19.50;72.50
64209;DHT22;50527;52.414;13.226;2023-07-20T11:29:19;19.60;71.40
64209;DHT22;50527;52.414;13.226;2023-07-20T11:31:46;19.70;70.20
64209;DHT22;50527;52.414;13.226;2023-07-20T11:34:16;19.90;68.40
64209;DHT22;50527;52.414;13.226;2023-07-20T11:36:44;20.10;67.40
64209;DHT22;50527;52.414;13.226;2023-07-20T11:42:32;20.40;68.40
64209;DHT22;50527;52.414;13.226;2023-07-20T11:44:58;20.80;66.20
64209;DHT22;50527;52.414;13.226;2023-07-20T11:47:29;20.90;65.60
64209;DHT22;50527;52.414;13.226;2023-07-20T11:49:54;21.00;65.70
64209;DHT22;50527;52.414;13.226;2023-07-20T11:52:23;21.20;64.20
64209;DHT22;50527;52.414;13.226;2023-07-20T11:54:48;21.20;65.30
64209;DHT22;50527;52.414;13.226;2023-07-20T11:57:18;21.20;64.60
64209;DHT22;50527;52.414;13.226;2023-07-20T11:59:56;21.10;65.00
64209;DHT22;50527;52.414;13.226;2023-07-20T12:02:23;20.90;65.40
64209;DHT22;50527;52.414;13.226;2023-07-20T12:04:51;20.80;65.60
64209;DHT22;50527;52.414;13.226;2023-07-20T12:07:18;20.60;66.20
64209;DHT22;50527;52.414;13.226;2023-07-20T12:09:44;20.50;68.30
64209;DHT22;50527;52.414;13.226;2023-07-20T12:12:11;20.50;68.60
64209;DHT22;50527;52.414;13.226;2023-07-20T12:14:39;20.30;67.30
64209;DHT22;50527;52.414;13.226;2023-07-20T12:17:04;20.50;66.70
64209;DHT22;50527;52.414;13.226;2023-07-20T12:19:37;20.60;65.80
64209;DHT22;50527;52.414;13.226;2023-07-20T12:22:03;20.70;63.70
64209;DHT22;50527;52.414;13.226;2023-07-20T12:24:28;20.60;63.10
64209;DHT22;50527;52.414;13.226;2023-07-20T12:26:58;20.70;61.00
64209;DHT22;50527;52.414;13.226;2023-07-20T12:29:24;20.80;62.10
64209;DHT22;50527;52.414;13.226;2023-07-20T12:31:49;20.80;60.30
64209;DHT22;50527;52.414;13.226;2023-07-20T12:34:15;20.90;60.80
64209;DHT22;50527;52.414;13.226;2023-07-20T12:36:40;21.00;60.30
64209;DHT22;50527;52.414;13.226;2023-07-20T12:39:06;21.00;59.80
64209;DHT22;50527;52.414;13.226;2023-07-20T12:41:31;21.10;60.80
64209;DHT22;50527;52.414;13.226;2023-07-20T12:43:56;21.30;59.90
64209;DHT22;50527;52.414;13.226;2023-07-20T12:46:24;21.40;60.00
64209;DHT22;50527;52.414;13.226;2023-07-20T12:48:49;21.40;58.70
64209;DHT22;50527;52.414;13.226;2023-07-20T12:51:15;21.50;59.90
64209;DHT22;50527;52.414;13.226;2023-07-20T12:53:40;21.30;58.00
64209;DHT22;50527;52.414;13.226;2023-07-20T12:59:28;21.10;58.60
64209;DHT22;50527;52.414;13.226;2023-07-20T13:01:53;21.20;58.20
64209;DHT22;50527;52.414;13.226;2023-07-20T13:04:19;21.30;56.20
64209;DHT22;50527;52.414;13.226;2023-07-20T13:06:44;21.20;57.00
64209;DHT22;50527;52.414;13.226;2023-07-20T13:09:09;21.40;57.20
64209;DHT22;50527;52.414;13.226;2023-07-20T13:11:35;21.50;57.20
64209;DHT22;50527;52.414;13.226;2023-07-20T13:14:00;21.70;55.90
64209;DHT22;50527;52.414;13.226;2023-07-20T13:16:26;21.60;51.00
64209;DHT22;50527;52.414;13.226;2023-07-20T13:18:51;21.80;51.60
64209;DHT22;50527;52.414;13.226;2023-07-20T13:21:45;21.90;51.30
64209;DHT22;50527;52.414;13.226;2023-07-20T13:24:11;22.10;51.60
64209;DHT22;50527;52.414;13.226;2023-07-20T13:26:36;22.10;48.50
64209;DHT22;50527;52.414;13.226;2023-07-20T13:29:01;22.00;49.20
64209;DHT22;50527;52.414;13.226;2023-07-20T13:31:28;22.10;48.60
64209;DHT22;50527;52.414;13.226;2023-07-20T13:33:53;22.20;47.00
64209;DHT22;50527;52.414;13.226;2023-07-20T13:36:19;22.20;47.30
64209;DHT22;50527;52.414;13.226;2023-07-20T13:38:46;22.30;48.70
64209;DHT22;50527;52.414;13.226;2023-07-20T13:41:11;22.50;47.40
64209;DHT22;50527;52.414;13.226;2023-07-20T13:43:37;22.50;47.60
64209;DHT22;50527;52.414;13.226;2023-07-20T13:46:02;22.60;47.90
64209;DHT22;50527;52.414;13.226;2023-07-20T13:48:28;22.80;46.70
64209;DHT22;50527;52.414;13.226;2023-07-20T13:50:53;22.60;47.00
64209;DHT22;50527;52.414;13.226;2023-07-20T13:53:19;22.60;47.00
64209;DHT22;50527;52.414;13.226;2023-07-20T13:55:47;22.60;47.10
64209;DHT22;50527;52.414;13.226;2023-07-20T13:58:13;22.60;47.40
64209;DHT22;50527;52.414;13.226;2023-07-20T14:00:38;22.60;45.70
64209;DHT22;50527;52.414;13.226;2023-07-20T14:03:04;22.40;47.20
64209;DHT22;50527;52.414;13.226;2023-07-20T14:05:29;22.50;47.20
64209;DHT22;50527;52.414;13.226;2023-07-20T14:07:55;22.50;45.70
64209;DHT22;50527;52.414;13.226;2023-07-20T14:10:20;22.50;45.70
64209;DHT22;50527;52.414;13.226;2023-07-20T14:12:46;22.40;44.40
64209;DHT22;50527;52.414;13.226;2023-07-20T14:15:11;22.20;45.10
64209;DHT22;50527;52.414;13.226;2023-07-20T14:17:37;22.10;45.80
64209;DHT22;50527;52.414;13.226;2023-07-20T14:20:03;22.20;46.60
64209;DHT22;50527;52.414;13.226;2023-07-20T14:22:31;22.40;45.30
64209;DHT22;50527;52.414;13.226;2023-07-20T14:24:57;22.40;45.40
64209;DHT22;50527;52.414;13.226;2023-07-20T14:27:22;22.50;46.00
64209;DHT22;50527;52.414;13.226;2023-07-20T14:29:48;22.70;44.00
64209;DHT22;50527;52.414;13.226;2023-07-20T14:32:13;22.70;44.10
64209;DHT22;50527;52.414;13.226;2023-07-20T14:34:39;22.60;44.40
64209;DHT22;50527;52.414;13.226;2023-07-20T14:37:05;22.70;43.50
64209;DHT22;50527;52.414;13.226;2023-07-20T14:39:31;22.80;41.90
64209;DHT22;50527;52.414;13.226;2023-07-20T14:41:57;22.90;41.70
64209;DHT22;50527;52.414;13.226;2023-07-20T14:44:23;22.80;40.30
64209;DHT22;50527;52.414;13.226;2023-07-20T14:46:48;22.80;41.50
64209;DHT22;50527;52.414;13.226;2023-07-20T14:49:14;22.80;42.20
64209;DHT22;50527;52.414;13.226;2023-07-20T14:51:39;22.90;41.50
64209;DHT22;50527;52.414;13.226;2023-07-20T14:54:09;22.90;41.80
64209;DHT22;50527;52.414;13.226;2023-07-20T14:56:37;22.90;41.70
64209;DHT22;50527;52.414;13.226;2023-07-20T14:59:03;22.90;41.30
64209;DHT22;50527;52.414;13.226;2023-07-20T15:01:29;23.00;40.70
64209;DHT22;50527;52.414;13.226;2023-07-20T15:03:54;22.90;41.80
64209;DHT22;50527;52.414;13.226;2023-07-20T15:06:21;22.90;40.80
64209;DHT22;50527;52.414;13.226;2023-07-20T15:08:47;22.70;42.30
64209;DHT22;50527;52.414;13.226;2023-07-20T15:11:12;22.60;41.80
64209;DHT22;50527;52.414;13.226;2023-07-20T15:17:00;22.70;42.40
64209;DHT22;50527;52.414;13.226;2023-07-20T15:19:26;22.80;41.70
64209;DHT22;50527;52.414;13.226;2023-07-20T15:21:51;22.90;41.70
64209;DHT22;50527;52.414;13.226;2023-07-20T15:24:17;22.80;42.00
64209;DHT22;50527;52.414;13.226;2023-07-20T15:26:42;22.70;42.70
64209;DHT22;50527;52.414;13.226;2023-07-20T15:29:08;22.60;42.90
64209;DHT22;50527;52.414;13.226;2023-07-20T15:31:33;22.70;42.60
64209;DHT22;50527;52.414;13.226;2023-07-20T15:33:59;22.80;42.80
64209;DHT22;50527;52.414;13.226;2023-07-20T15:39:58;23.00;42.10
64209;DHT22;50527;52.414;13.226;2023-07-20T15:49:09;22.50;43.20
64209;DHT22;50527;52.414;13.226;2023-07-20T15:51:35;22.40;43.80
64209;DHT22;50527;52.414;13.226;2023-07-20T15:54:08;22.60;43.20
64209;DHT22;50527;52.414;13.226;2023-07-20T15:56:34;22.70;42.60
64209;DHT22;50527;52.414;13.226;2023-07-20T15:59:00;22.70;43.30
64209;DHT22;50527;52.414;13.226;2023-07-20T16:01:25;22.70;43.70
64209;DHT22;50527;52.414;13.226;2023-07-20T16:03:51;22.70;43.60
64209;DHT22;50527;52.414;13.226;2023-07-20T16:06:16;22.80;43.50
64209;DHT22;50527;52.414;13.226;2023-07-20T16:08:42;22.80;43.70
64209;DHT22;50527;52.414;13.226;2023-07-20T16:11:07;22.80;42.80
64209;DHT22;50527;52.414;13.226;2023-07-20T16:13:33;22.80;42.80
64209;DHT22;50527;52.414;13.226;2023-07-20T16:15:58;22.80;41.80
64209;DHT22;50527;52.414;13.226;2023-07-20T16:18:24;22.80;41.50
64209;DHT22;50527;52.414;13.226;2023-07-20T16:20:49;22.70;41.70